sensor_id;sensor_type;location;lat;lon;timestamp;P1;durP1;ratioP1;P2;durP2;ratioP2
84386;SDS011;74580;47.078;15.446;2024-03-07T00:01:59;3.38;;;2.30;;
84386;SDS011;74580;47.078;15.446;2024-03-07T00:04:24;2.72;;;2.10;;
84386;SDS011;74580;47.078;15.446;2024-03-07T00:06:50;4.13;;;2.80;;
84386;SDS011;74580;47.078;15.446;2024-03-07T00:09:15;3.05;;;2.05;;
84386;SDS011;74580;47.078;15.446;2024-03-07T00:11:41;3.35;;;2.60;;
84386;SDS011;74580;47.078;15.446;2024-03-07T00:14:06;3.20;;;2.50;;
84386;SDS011;74580;47.078;15.446;2024-03-07T00:16:32;3.83;;;2.80;;
84386;SDS011;74580;47.078;15.446;2024-03-07T00:18:58;4.07;;;2.00;;
84386;SDS011;74580;47.078;15.446;2024-03-07T00:21:25;3.40;;;2.40;;
84386;SDS011;74580;47.078;15.446;2024-03-07T00:23:51;3.42;;;2.20;;
84386;SDS011;74580;47.078;15.446;2024-03-07T00:26:16;3.90;;;2.10;;
84386;SDS011;74580;47.078;15.446;2024-03-07T00:28:41;3.30;;;2.08;;
84386;SDS011;74580;47.078;15.446;2024-03-07T00:31:07;3.28;;;2.35;;
84386;SDS011;74580;47.078;15.446;2024-03-07T00:33:34;3.17;;;2.20;;
84386;SDS011;74580;47.078;15.446;2024-03-07T00:35:59;3.58;;;2.30;;
84386;SDS011;74580;47.078;15.446;2024-03-07T00:38:25;3.03;;;2.40;;
84386;SDS011;74580;47.078;15.446;2024-03-07T00:40:50;3.50;;;2.33;;
84386;SDS011;74580;47.078;15.446;2024-03-07T00:43:16;2.95;;;2.10;;
84386;SDS011;74580;47.078;15.446;2024-03-07T00:45:41;3.38;;;2.28;;
84386;SDS011;74580;47.078;15.446;2024-03-07T00:48:07;3.50;;;2.80;;
84386;SDS011;74580;47.078;15.446;2024-03-07T00:50:32;3.40;;;2.60;;
84386;SDS011;74580;47.078;15.446;2024-03-07T00:52:57;3.95;;;2.45;;
84386;SDS011;74580;47.078;15.446;2024-03-07T00:55:23;3.30;;;2.30;;
84386;SDS011;74580;47.078;15.446;2024-03-07T00:57:48;3.78;;;2.60;;
84386;SDS011;74580;47.078;15.446;2024-03-07T01:00:14;3.58;;;2.45;;
84386;SDS011;74580;47.078;15.446;2024-03-07T01:02:40;3.67;;;2.85;;
84386;SDS011;74580;47.078;15.446;2024-03-07T01:05:09;3.72;;;2.97;;
84386;SDS011;74580;47.078;15.446;2024-03-07T01:07:35;3.20;;;2.40;;
84386;SDS011;74580;47.078;15.446;2024-03-07T01:10:02;3.22;;;2.60;;
84386;SDS011;74580;47.078;15.446;2024-03-07T01:12:31;3.28;;;2.55;;
84386;SDS011;74580;47.078;15.446;2024-03-07T01:14:56;3.38;;;2.47;;
84386;SDS011;74580;47.078;15.446;2024-03-07T01:17:22;3.95;;;2.65;;
84386;SDS011;74580;47.078;15.446;2024-03-07T01:19:49;3.33;;;2.28;;
84386;SDS011;74580;47.078;15.446;2024-03-07T01:22:14;4.20;;;2.53;;
84386;SDS011;74580;47.078;15.446;2024-03-07T01:24:40;4.03;;;2.63;;
84386;SDS011;74580;47.078;15.446;2024-03-07T01:27:05;2.95;;;1.88;;
84386;SDS011;74580;47.078;15.446;2024-03-07T01:29:31;2.55;;;1.83;;
84386;SDS011;74580;47.078;15.446;2024-03-07T01:31:56;3.83;;;2.30;;
84386;SDS011;74580;47.078;15.446;2024-03-07T01:34:21;4.72;;;2.83;;
84386;SDS011;74580;47.078;15.446;2024-03-07T01:36:47;4.25;;;2.53;;
84386;SDS011;74580;47.078;15.446;2024-03-07T01:39:12;3.50;;;2.00;;
84386;SDS011;74580;47.078;15.446;2024-03-07T01:41:38;3.38;;;2.40;;
84386;SDS011;74580;47.078;15.446;2024-03-07T01:44:03;3.53;;;2.30;;
84386;SDS011;74580;47.078;15.446;2024-03-07T01:46:29;3.25;;;2.58;;
84386;SDS011;74580;47.078;15.446;2024-03-07T01:48:55;3.45;;;2.72;;
84386;SDS011;74580;47.078;15.446;2024-03-07T01:51:20;3.58;;;2.60;;
84386;SDS011;74580;47.078;15.446;2024-03-07T01:53:49;4.10;;;2.00;;
84386;SDS011;74580;47.078;15.446;2024-03-07T01:56:16;3.55;;;2.03;;
84386;SDS011;74580;47.078;15.446;2024-03-07T01:58:43;3.20;;;2.35;;
84386;SDS011;74580;47.078;15.446;2024-03-07T02:01:12;3.35;;;2.42;;
84386;SDS011;74580;47.078;15.446;2024-03-07T02:03:39;3.38;;;2.20;;
84386;SDS011;74580;47.078;15.446;2024-03-07T02:06:05;3.63;;;2.63;;
84386;SDS011;74580;47.078;15.446;2024-03-07T02:08:30;3.08;;;2.22;;
84386;SDS011;74580;47.078;15.446;2024-03-07T02:10:57;4.28;;;2.47;;
84386;SDS011;74580;47.078;15.446;2024-03-07T02:13:23;3.70;;;2.28;;
84386;SDS011;74580;47.078;15.446;2024-03-07T02:15:48;3.60;;;2.38;;
84386;SDS011;74580;47.078;15.446;2024-03-07T02:18:14;2.97;;;2.45;;
84386;SDS011;74580;47.078;15.446;2024-03-07T02:20:45;3.30;;;2.30;;
84386;SDS011;74580;47.078;15.446;2024-03-07T02:23:11;3.28;;;2.35;;
84386;SDS011;74580;47.078;15.446;2024-03-07T02:25:37;3.50;;;2.10;;
84386;SDS011;74580;47.078;15.446;2024-03-07T02:28:06;2.92;;;2.17;;
84386;SDS011;74580;47.078;15.446;2024-03-07T02:30:32;3.42;;;2.20;;
84386;SDS011;74580;47.078;15.446;2024-03-07T02:32:58;3.55;;;2.10;;
84386;SDS011;74580;47.078;15.446;2024-03-07T02:35:31;3.25;;;2.08;;
84386;SDS011;74580;47.078;15.446;2024-03-07T02:38:03;3.00;;;2.40;;
84386;SDS011;74580;47.078;15.446;2024-03-07T02:40:30;3.25;;;2.20;;
84386;SDS011;74580;47.078;15.446;2024-03-07T02:42:56;3.38;;;2.10;;
84386;SDS011;74580;47.078;15.446;2024-03-07T02:45:24;3.75;;;2.72;;
84386;SDS011;74580;47.078;15.446;2024-03-07T02:47:49;3.15;;;2.17;;
84386;SDS011;74580;47.078;15.446;2024-03-07T02:50:14;3.22;;;2.38;;
84386;SDS011;74580;47.078;15.446;2024-03-07T02:52:40;3.38;;;2.38;;
84386;SDS011;74580;47.078;15.446;2024-03-07T02:55:06;3.35;;;2.35;;
84386;SDS011;74580;47.078;15.446;2024-03-07T02:57:35;3.33;;;2.35;;
84386;SDS011;74580;47.078;15.446;2024-03-07T03:00:01;2.92;;;2.17;;
84386;SDS011;74580;47.078;15.446;2024-03-07T03:02:26;3.40;;;2.40;;
84386;SDS011;74580;47.078;15.446;2024-03-07T03:04:51;3.85;;;2.10;;
84386;SDS011;74580;47.078;15.446;2024-03-07T03:07:17;3.20;;;2.13;;
84386;SDS011;74580;47.078;15.446;2024-03-07T03:09:42;4.22;;;2.50;;
84386;SDS011;74580;47.078;15.446;2024-03-07T03:12:11;2.92;;;1.92;;
84386;SDS011;74580;47.078;15.446;2024-03-07T03:14:37;3.42;;;2.35;;
84386;SDS011;74580;47.078;15.446;2024-03-07T03:17:02;2.95;;;1.80;;
84386;SDS011;74580;47.078;15.446;2024-03-07T03:19:28;3.53;;;2.40;;
84386;SDS011;74580;47.078;15.446;2024-03-07T03:21:53;3.47;;;2.40;;
84386;SDS011;74580;47.078;15.446;2024-03-07T03:24:21;3.88;;;2.42;;
84386;SDS011;74580;47.078;15.446;2024-03-07T03:26:47;3.50;;;2.40;;
84386;SDS011;74580;47.078;15.446;2024-03-07T03:29:13;3.17;;;2.10;;
84386;SDS011;74580;47.078;15.446;2024-03-07T03:31:39;3.45;;;2.20;;
84386;SDS011;74580;47.078;15.446;2024-03-07T03:34:05;2.83;;;1.83;;
84386;SDS011;74580;47.078;15.446;2024-03-07T03:36:30;3.50;;;1.98;;
84386;SDS011;74580;47.078;15.446;2024-03-07T03:38:56;2.78;;;2.20;;
84386;SDS011;74580;47.078;15.446;2024-03-07T03:41:21;2.58;;;1.73;;
84386;SDS011;74580;47.078;15.446;2024-03-07T03:43:47;2.80;;;2.03;;
84386;SDS011;74580;47.078;15.446;2024-03-07T03:46:13;3.33;;;2.55;;
84386;SDS011;74580;47.078;15.446;2024-03-07T03:48:39;3.30;;;2.20;;
84386;SDS011;74580;47.078;15.446;2024-03-07T03:51:08;2.80;;;2.20;;
84386;SDS011;74580;47.078;15.446;2024-03-07T03:53:34;3.67;;;2.20;;
84386;SDS011;74580;47.078;15.446;2024-03-07T03:56:02;2.90;;;2.10;;
84386;SDS011;74580;47.078;15.446;2024-03-07T03:58:31;2.97;;;2.10;;
84386;SDS011;74580;47.078;15.446;2024-03-07T04:00:56;3.45;;;2.28;;
84386;SDS011;74580;47.078;15.446;2024-03-07T04:03:23;3.35;;;2.47;;
84386;SDS011;74580;47.078;15.446;2024-03-07T04:05:49;3.22;;;2.47;;
84386;SDS011;74580;47.078;15.446;2024-03-07T04:08:14;3.33;;;2.30;;
84386;SDS011;74580;47.078;15.446;2024-03-07T04:10:39;2.83;;;1.92;;
84386;SDS011;74580;47.078;15.446;2024-03-07T04:13:05;4.07;;;2.28;;
84386;SDS011;74580;47.078;15.446;2024-03-07T04:15:30;3.40;;;2.35;;
84386;SDS011;74580;47.078;15.446;2024-03-07T04:17:57;3.90;;;2.10;;
84386;SDS011;74580;47.078;15.446;2024-03-07T04:20:23;3.28;;;2.35;;
84386;SDS011;74580;47.078;15.446;2024-03-07T04:22:49;3.60;;;2.45;;
84386;SDS011;74580;47.078;15.446;2024-03-07T04:25:15;3.63;;;2.50;;
84386;SDS011;74580;47.078;15.446;2024-03-07T04:27:41;3.08;;;2.17;;
84386;SDS011;74580;47.078;15.446;2024-03-07T04:30:07;3.10;;;2.38;;
84386;SDS011;74580;47.078;15.446;2024-03-07T04:32:39;3.42;;;2.35;;
84386;SDS011;74580;47.078;15.446;2024-03-07T04:35:06;3.33;;;2.63;;
84386;SDS011;74580;47.078;15.446;2024-03-07T04:37:38;2.67;;;1.80;;
84386;SDS011;74580;47.078;15.446;2024-03-07T04:40:08;2.92;;;1.92;;
84386;SDS011;74580;47.078;15.446;2024-03-07T04:42:47;4.13;;;2.63;;
84386;SDS011;74580;47.078;15.446;2024-03-07T04:45:14;3.58;;;2.50;;
84386;SDS011;74580;47.078;15.446;2024-03-07T04:47:40;3.53;;;1.88;;
84386;SDS011;74580;47.078;15.446;2024-03-07T04:50:06;3.75;;;2.38;;
84386;SDS011;74580;47.078;15.446;2024-03-07T04:52:35;2.70;;;1.80;;
84386;SDS011;74580;47.078;15.446;2024-03-07T04:55:01;2.88;;;2.15;;
84386;SDS011;74580;47.078;15.446;2024-03-07T04:57:26;2.55;;;1.70;;
84386;SDS011;74580;47.078;15.446;2024-03-07T04:59:52;2.78;;;1.70;;
84386;SDS011;74580;47.078;15.446;2024-03-07T05:02:17;3.10;;;2.30;;
84386;SDS011;74580;47.078;15.446;2024-03-07T05:04:42;3.17;;;2.30;;
84386;SDS011;74580;47.078;15.446;2024-03-07T05:07:08;2.63;;;1.80;;
84386;SDS011;74580;47.078;15.446;2024-03-07T05:09:33;4.15;;;2.00;;
84386;SDS011;74580;47.078;15.446;2024-03-07T05:11:58;2.78;;;1.90;;
84386;SDS011;74580;47.078;15.446;2024-03-07T05:14:24;3.35;;;1.83;;
84386;SDS011;74580;47.078;15.446;2024-03-07T05:16:52;2.42;;;2.10;;
84386;SDS011;74580;47.078;15.446;2024-03-07T05:19:38;2.35;;;1.67;;
84386;SDS011;74580;47.078;15.446;2024-03-07T05:22:03;2.60;;;1.85;;
84386;SDS011;74580;47.078;15.446;2024-03-07T05:24:32;3.20;;;2.30;;
84386;SDS011;74580;47.078;15.446;2024-03-07T05:26:59;3.65;;;2.08;;
84386;SDS011;74580;47.078;15.446;2024-03-07T05:29:24;2.80;;;1.70;;
84386;SDS011;74580;47.078;15.446;2024-03-07T05:31:50;2.60;;;1.83;;
84386;SDS011;74580;47.078;15.446;2024-03-07T05:34:16;2.17;;;1.52;;
84386;SDS011;74580;47.078;15.446;2024-03-07T05:36:44;2.70;;;1.90;;
84386;SDS011;74580;47.078;15.446;2024-03-07T05:39:11;2.55;;;1.88;;
84386;SDS011;74580;47.078;15.446;2024-03-07T05:41:38;2.70;;;1.80;;
84386;SDS011;74580;47.078;15.446;2024-03-07T05:44:05;3.30;;;2.40;;
84386;SDS011;74580;47.078;15.446;2024-03-07T05:49:06;3.03;;;2.50;;
84386;SDS011;74580;47.078;15.446;2024-03-07T05:51:31;3.20;;;2.10;;
84386;SDS011;74580;47.078;15.446;2024-03-07T05:53:57;3.75;;;2.33;;
84386;SDS011;74580;47.078;15.446;2024-03-07T05:56:22;3.72;;;2.38;;
84386;SDS011;74580;47.078;15.446;2024-03-07T05:58:48;4.30;;;2.55;;
84386;SDS011;74580;47.078;15.446;2024-03-07T06:01:13;4.28;;;2.63;;
84386;SDS011;74580;47.078;15.446;2024-03-07T06:03:39;5.05;;;2.78;;
84386;SDS011;74580;47.078;15.446;2024-03-07T06:06:04;6.07;;;3.15;;
84386;SDS011;74580;47.078;15.446;2024-03-07T06:08:33;5.68;;;3.13;;
84386;SDS011;74580;47.078;15.446;2024-03-07T06:10:58;4.82;;;3.53;;
84386;SDS011;74580;47.078;15.446;2024-03-07T06:13:24;7.57;;;4.13;;
84386;SDS011;74580;47.078;15.446;2024-03-07T06:15:49;6.43;;;3.90;;
84386;SDS011;74580;47.078;15.446;2024-03-07T06:18:15;7.45;;;3.65;;
84386;SDS011;74580;47.078;15.446;2024-03-07T06:20:41;5.95;;;3.97;;
84386;SDS011;74580;47.078;15.446;2024-03-07T06:23:07;7.63;;;3.80;;
84386;SDS011;74580;47.078;15.446;2024-03-07T06:25:33;7.90;;;4.40;;
84386;SDS011;74580;47.078;15.446;2024-03-07T06:28:05;9.48;;;3.90;;
84386;SDS011;74580;47.078;15.446;2024-03-07T06:30:41;7.25;;;4.32;;
84386;SDS011;74580;47.078;15.446;2024-03-07T06:33:08;8.68;;;4.40;;
84386;SDS011;74580;47.078;15.446;2024-03-07T06:35:37;9.32;;;4.60;;
84386;SDS011;74580;47.078;15.446;2024-03-07T06:38:04;8.98;;;3.92;;
84386;SDS011;74580;47.078;15.446;2024-03-07T06:40:30;11.98;;;4.35;;
84386;SDS011;74580;47.078;15.446;2024-03-07T06:42:57;14.13;;;4.75;;
84386;SDS011;74580;47.078;15.446;2024-03-07T06:45:23;12.95;;;4.35;;
84386;SDS011;74580;47.078;15.446;2024-03-07T06:47:49;11.18;;;5.00;;
84386;SDS011;74580;47.078;15.446;2024-03-07T06:50:15;9.95;;;5.20;;
84386;SDS011;74580;47.078;15.446;2024-03-07T06:52:42;9.60;;;4.18;;
84386;SDS011;74580;47.078;15.446;2024-03-07T06:55:07;13.60;;;5.45;;
84386;SDS011;74580;47.078;15.446;2024-03-07T06:57:33;7.63;;;4.70;;
84386;SDS011;74580;47.078;15.446;2024-03-07T07:00:02;8.77;;;4.35;;
84386;SDS011;74580;47.078;15.446;2024-03-07T07:02:36;8.77;;;5.10;;
84386;SDS011;74580;47.078;15.446;2024-03-07T07:05:03;10.15;;;4.82;;
84386;SDS011;74580;47.078;15.446;2024-03-07T07:07:32;8.18;;;4.97;;
84386;SDS011;74580;47.078;15.446;2024-03-07T07:10:00;8.45;;;5.47;;
84386;SDS011;74580;47.078;15.446;2024-03-07T07:12:26;7.75;;;4.32;;
84386;SDS011;74580;47.078;15.446;2024-03-07T07:14:51;9.13;;;5.20;;
84386;SDS011;74580;47.078;15.446;2024-03-07T07:17:17;8.93;;;4.18;;
84386;SDS011;74580;47.078;15.446;2024-03-07T07:19:42;7.85;;;4.55;;
84386;SDS011;74580;47.078;15.446;2024-03-07T07:22:07;9.32;;;4.82;;
84386;SDS011;74580;47.078;15.446;2024-03-07T07:24:35;9.48;;;3.83;;
84386;SDS011;74580;47.078;15.446;2024-03-07T07:27:03;8.02;;;4.00;;
84386;SDS011;74580;47.078;15.446;2024-03-07T07:29:28;9.95;;;4.35;;
84386;SDS011;74580;47.078;15.446;2024-03-07T07:31:54;8.20;;;4.05;;
84386;SDS011;74580;47.078;15.446;2024-03-07T07:34:20;8.57;;;4.38;;
84386;SDS011;74580;47.078;15.446;2024-03-07T07:36:45;7.20;;;4.50;;
84386;SDS011;74580;47.078;15.446;2024-03-07T07:39:11;9.02;;;4.53;;
84386;SDS011;74580;47.078;15.446;2024-03-07T07:44:07;9.23;;;4.68;;
84386;SDS011;74580;47.078;15.446;2024-03-07T07:46:33;9.10;;;4.50;;
84386;SDS011;74580;47.078;15.446;2024-03-07T07:48:59;7.50;;;4.65;;
84386;SDS011;74580;47.078;15.446;2024-03-07T07:51:25;7.97;;;4.30;;
84386;SDS011;74580;47.078;15.446;2024-03-07T07:53:51;7.95;;;4.68;;
84386;SDS011;74580;47.078;15.446;2024-03-07T07:56:19;7.38;;;4.65;;
84386;SDS011;74580;47.078;15.446;2024-03-07T07:58:45;7.28;;;4.60;;
84386;SDS011;74580;47.078;15.446;2024-03-07T08:01:11;6.97;;;3.97;;
84386;SDS011;74580;47.078;15.446;2024-03-07T08:03:36;6.95;;;4.40;;
84386;SDS011;74580;47.078;15.446;2024-03-07T08:06:03;8.20;;;4.93;;
84386;SDS011;74580;47.078;15.446;2024-03-07T08:08:28;6.82;;;4.30;;
84386;SDS011;74580;47.078;15.446;2024-03-07T08:10:54;8.30;;;4.78;;
84386;SDS011;74580;47.078;15.446;2024-03-07T08:13:19;7.57;;;3.92;;
84386;SDS011;74580;47.078;15.446;2024-03-07T08:15:45;6.82;;;3.65;;
84386;SDS011;74580;47.078;15.446;2024-03-07T08:18:10;7.13;;;4.45;;
84386;SDS011;74580;47.078;15.446;2024-03-07T08:20:36;10.50;;;4.78;;
84386;SDS011;74580;47.078;15.446;2024-03-07T08:23:02;6.95;;;3.90;;
84386;SDS011;74580;47.078;15.446;2024-03-07T08:25:28;8.30;;;3.70;;
84386;SDS011;74580;47.078;15.446;2024-03-07T08:27:55;10.00;;;4.57;;
84386;SDS011;74580;47.078;15.446;2024-03-07T08:30:21;7.00;;;3.50;;
84386;SDS011;74580;47.078;15.446;2024-03-07T08:32:51;7.18;;;4.50;;
84386;SDS011;74580;47.078;15.446;2024-03-07T08:35:18;5.38;;;3.50;;
84386;SDS011;74580;47.078;15.446;2024-03-07T08:37:47;6.28;;;3.92;;
84386;SDS011;74580;47.078;15.446;2024-03-07T08:40:20;6.55;;;3.65;;
84386;SDS011;74580;47.078;15.446;2024-03-07T08:42:46;9.32;;;3.97;;
84386;SDS011;74580;47.078;15.446;2024-03-07T08:45:13;6.10;;;4.03;;
84386;SDS011;74580;47.078;15.446;2024-03-07T08:47:42;7.47;;;4.18;;
84386;SDS011;74580;47.078;15.446;2024-03-07T08:50:08;6.18;;;3.38;;
84386;SDS011;74580;47.078;15.446;2024-03-07T08:52:34;6.75;;;3.30;;
84386;SDS011;74580;47.078;15.446;2024-03-07T08:55:03;5.78;;;3.80;;
84386;SDS011;74580;47.078;15.446;2024-03-07T08:57:29;6.88;;;3.63;;
84386;SDS011;74580;47.078;15.446;2024-03-07T08:59:54;4.88;;;3.25;;
84386;SDS011;74580;47.078;15.446;2024-03-07T09:02:20;7.30;;;3.40;;
84386;SDS011;74580;47.078;15.446;2024-03-07T09:04:45;10.50;;;4.35;;
84386;SDS011;74580;47.078;15.446;2024-03-07T09:07:11;6.22;;;3.45;;
84386;SDS011;74580;47.078;15.446;2024-03-07T09:09:37;5.95;;;3.40;;
84386;SDS011;74580;47.078;15.446;2024-03-07T09:12:02;8.63;;;3.90;;
84386;SDS011;74580;47.078;15.446;2024-03-07T09:14:28;6.40;;;3.80;;
84386;SDS011;74580;47.078;15.446;2024-03-07T09:16:53;6.53;;;4.40;;
84386;SDS011;74580;47.078;15.446;2024-03-07T09:19:19;4.93;;;3.60;;
84386;SDS011;74580;47.078;15.446;2024-03-07T09:21:48;4.75;;;3.03;;
84386;SDS011;74580;47.078;15.446;2024-03-07T09:24:15;6.43;;;3.40;;
84386;SDS011;74580;47.078;15.446;2024-03-07T09:26:41;7.20;;;3.88;;
84386;SDS011;74580;47.078;15.446;2024-03-07T09:29:06;10.90;;;4.30;;
84386;SDS011;74580;47.078;15.446;2024-03-07T09:31:32;6.57;;;3.88;;
84386;SDS011;74580;47.078;15.446;2024-03-07T09:33:58;6.25;;;3.60;;
84386;SDS011;74580;47.078;15.446;2024-03-07T09:36:24;6.57;;;3.88;;
84386;SDS011;74580;47.078;15.446;2024-03-07T09:38:50;4.93;;;3.40;;
84386;SDS011;74580;47.078;15.446;2024-03-07T09:41:19;5.07;;;3.42;;
84386;SDS011;74580;47.078;15.446;2024-03-07T09:43:48;5.82;;;3.50;;
84386;SDS011;74580;47.078;15.446;2024-03-07T09:46:19;5.75;;;3.53;;
84386;SDS011;74580;47.078;15.446;2024-03-07T09:48:47;6.60;;;3.33;;
84386;SDS011;74580;47.078;15.446;2024-03-07T09:51:14;5.78;;;3.88;;
84386;SDS011;74580;47.078;15.446;2024-03-07T09:53:42;5.40;;;3.53;;
84386;SDS011;74580;47.078;15.446;2024-03-07T09:56:11;5.93;;;3.45;;
84386;SDS011;74580;47.078;15.446;2024-03-07T09:58:38;5.75;;;2.78;;
84386;SDS011;74580;47.078;15.446;2024-03-07T10:01:05;4.90;;;3.65;;
84386;SDS011;74580;47.078;15.446;2024-03-07T10:03:34;7.10;;;3.38;;
84386;SDS011;74580;47.078;15.446;2024-03-07T10:06:02;5.55;;;3.08;;
84386;SDS011;74580;47.078;15.446;2024-03-07T10:08:28;4.95;;;3.60;;
84386;SDS011;74580;47.078;15.446;2024-03-07T10:10:55;5.82;;;4.10;;
84386;SDS011;74580;47.078;15.446;2024-03-07T10:13:21;5.93;;;3.10;;
84386;SDS011;74580;47.078;15.446;2024-03-07T10:15:47;5.45;;;3.17;;
84386;SDS011;74580;47.078;15.446;2024-03-07T10:18:14;5.45;;;3.63;;
84386;SDS011;74580;47.078;15.446;2024-03-07T10:20:42;4.57;;;3.00;;
84386;SDS011;74580;47.078;15.446;2024-03-07T10:23:07;4.05;;;3.08;;
84386;SDS011;74580;47.078;15.446;2024-03-07T10:25:33;5.50;;;3.28;;
84386;SDS011;74580;47.078;15.446;2024-03-07T10:28:02;4.93;;;3.58;;
84386;SDS011;74580;47.078;15.446;2024-03-07T10:30:30;4.82;;;3.08;;
84386;SDS011;74580;47.078;15.446;2024-03-07T10:32:56;4.50;;;3.47;;
84386;SDS011;74580;47.078;15.446;2024-03-07T10:35:23;4.93;;;3.00;;
84386;SDS011;74580;47.078;15.446;2024-03-07T10:37:52;5.03;;;3.15;;
84386;SDS011;74580;47.078;15.446;2024-03-07T10:40:19;5.07;;;3.33;;
84386;SDS011;74580;47.078;15.446;2024-03-07T10:42:48;4.80;;;3.35;;
84386;SDS011;74580;47.078;15.446;2024-03-07T10:45:19;5.32;;;3.10;;
84386;SDS011;74580;47.078;15.446;2024-03-07T10:47:55;5.93;;;3.28;;
84386;SDS011;74580;47.078;15.446;2024-03-07T10:50:30;5.28;;;3.33;;
84386;SDS011;74580;47.078;15.446;2024-03-07T10:58:32;5.20;;;3.40;;
84386;SDS011;74580;47.078;15.446;2024-03-07T11:01:18;4.72;;;2.92;;
84386;SDS011;74580;47.078;15.446;2024-03-07T11:03:45;4.43;;;2.90;;
84386;SDS011;74580;47.078;15.446;2024-03-07T11:06:12;4.25;;;2.72;;
84386;SDS011;74580;47.078;15.446;2024-03-07T11:08:41;4.30;;;2.58;;
84386;SDS011;74580;47.078;15.446;2024-03-07T11:11:07;4.28;;;2.58;;
84386;SDS011;74580;47.078;15.446;2024-03-07T11:13:33;5.25;;;3.10;;
84386;SDS011;74580;47.078;15.446;2024-03-07T11:16:00;5.57;;;3.22;;
84386;SDS011;74580;47.078;15.446;2024-03-07T11:18:28;5.47;;;3.28;;
84386;SDS011;74580;47.078;15.446;2024-03-07T11:20:53;5.00;;;2.85;;
84386;SDS011;74580;47.078;15.446;2024-03-07T11:26:03;5.00;;;2.80;;
84386;SDS011;74580;47.078;15.446;2024-03-07T11:28:32;4.80;;;3.00;;
84386;SDS011;74580;47.078;15.446;2024-03-07T11:33:37;4.45;;;3.40;;
84386;SDS011;74580;47.078;15.446;2024-03-07T11:36:05;4.47;;;3.00;;
84386;SDS011;74580;47.078;15.446;2024-03-07T11:38:31;5.40;;;3.00;;
84386;SDS011;74580;47.078;15.446;2024-03-07T11:40:59;4.63;;;2.88;;
84386;SDS011;74580;47.078;15.446;2024-03-07T11:43:27;4.45;;;2.88;;
84386;SDS011;74580;47.078;15.446;2024-03-07T11:45:53;4.63;;;2.95;;
84386;SDS011;74580;47.078;15.446;2024-03-07T11:48:18;3.83;;;3.00;;
84386;SDS011;74580;47.078;15.446;2024-03-07T11:50:45;4.07;;;2.80;;
84386;SDS011;74580;47.078;15.446;2024-03-07T11:53:11;5.03;;;2.67;;
84386;SDS011;74580;47.078;15.446;2024-03-07T11:55:37;4.95;;;3.00;;
84386;SDS011;74580;47.078;15.446;2024-03-07T11:58:19;4.40;;;3.13;;
84386;SDS011;74580;47.078;15.446;2024-03-07T12:00:49;4.03;;;2.50;;
84386;SDS011;74580;47.078;15.446;2024-03-07T12:03:16;4.63;;;3.05;;
84386;SDS011;74580;47.078;15.446;2024-03-07T12:05:46;4.18;;;2.90;;
84386;SDS011;74580;47.078;15.446;2024-03-07T12:08:12;4.85;;;2.45;;
84386;SDS011;74580;47.078;15.446;2024-03-07T12:10:39;3.85;;;2.67;;
84386;SDS011;74580;47.078;15.446;2024-03-07T12:13:08;5.15;;;2.75;;
84386;SDS011;74580;47.078;15.446;2024-03-07T12:15:40;4.70;;;2.63;;
84386;SDS011;74580;47.078;15.446;2024-03-07T12:18:07;4.28;;;2.53;;
84386;SDS011;74580;47.078;15.446;2024-03-07T12:20:37;3.83;;;2.25;;
84386;SDS011;74580;47.078;15.446;2024-03-07T12:23:04;4.15;;;2.97;;
84386;SDS011;74580;47.078;15.446;2024-03-07T12:25:33;3.70;;;2.28;;
84386;SDS011;74580;47.078;15.446;2024-03-07T12:28:02;4.50;;;2.75;;
84386;SDS011;74580;47.078;15.446;2024-03-07T12:30:36;3.90;;;2.28;;
84386;SDS011;74580;47.078;15.446;2024-03-07T12:33:11;4.00;;;2.55;;
84386;SDS011;74580;47.078;15.446;2024-03-07T12:35:38;3.55;;;2.28;;
84386;SDS011;74580;47.078;15.446;2024-03-07T12:38:07;4.13;;;2.70;;
84386;SDS011;74580;47.078;15.446;2024-03-07T12:40:35;3.80;;;2.35;;
84386;SDS011;74580;47.078;15.446;2024-03-07T12:43:02;4.43;;;2.50;;
84386;SDS011;74580;47.078;15.446;2024-03-07T12:45:48;3.85;;;2.70;;
84386;SDS011;74580;47.078;15.446;2024-03-07T12:48:15;4.10;;;2.15;;
84386;SDS011;74580;47.078;15.446;2024-03-07T12:50:41;3.83;;;2.45;;
84386;SDS011;74580;47.078;15.446;2024-03-07T12:53:06;4.18;;;2.22;;
84386;SDS011;74580;47.078;15.446;2024-03-07T12:55:37;3.13;;;2.42;;
84386;SDS011;74580;47.078;15.446;2024-03-07T12:58:09;4.70;;;2.85;;
84386;SDS011;74580;47.078;15.446;2024-03-07T13:00:38;3.53;;;2.20;;
84386;SDS011;74580;47.078;15.446;2024-03-07T13:03:06;3.88;;;2.60;;
84386;SDS011;74580;47.078;15.446;2024-03-07T13:05:31;3.47;;;2.42;;
84386;SDS011;74580;47.078;15.446;2024-03-07T13:07:57;3.17;;;2.50;;
84386;SDS011;74580;47.078;15.446;2024-03-07T13:10:22;3.60;;;2.20;;
84386;SDS011;74580;47.078;15.446;2024-03-07T13:12:48;3.47;;;2.45;;
84386;SDS011;74580;47.078;15.446;2024-03-07T13:15:14;5.05;;;1.92;;
84386;SDS011;74580;47.078;15.446;2024-03-07T13:17:40;3.60;;;2.45;;
84386;SDS011;74580;47.078;15.446;2024-03-07T13:20:08;4.90;;;2.10;;
84386;SDS011;74580;47.078;15.446;2024-03-07T13:22:43;3.60;;;2.08;;
84386;SDS011;74580;47.078;15.446;2024-03-07T13:25:22;3.67;;;2.78;;
84386;SDS011;74580;47.078;15.446;2024-03-07T13:27:56;4.57;;;2.47;;
84386;SDS011;74580;47.078;15.446;2024-03-07T13:30:25;5.93;;;2.40;;
84386;SDS011;74580;47.078;15.446;2024-03-07T13:32:55;4.05;;;2.30;;
84386;SDS011;74580;47.078;15.446;2024-03-07T13:35:21;3.15;;;2.60;;
84386;SDS011;74580;47.078;15.446;2024-03-07T13:37:48;4.90;;;2.53;;
84386;SDS011;74580;47.078;15.446;2024-03-07T13:40:14;4.45;;;2.35;;
84386;SDS011;74580;47.078;15.446;2024-03-07T13:42:56;3.85;;;2.10;;
84386;SDS011;74580;47.078;15.446;2024-03-07T13:45:25;3.38;;;2.60;;
84386;SDS011;74580;47.078;15.446;2024-03-07T13:47:56;4.15;;;2.42;;
84386;SDS011;74580;47.078;15.446;2024-03-07T13:50:24;3.42;;;1.88;;
84386;SDS011;74580;47.078;15.446;2024-03-07T13:52:53;3.65;;;2.15;;
84386;SDS011;74580;47.078;15.446;2024-03-07T14:24:16;3.20;;;1.92;;
84386;SDS011;74580;47.078;15.446;2024-03-07T14:32:37;3.25;;;1.80;;
84386;SDS011;74580;47.078;15.446;2024-03-07T14:37:51;4.88;;;2.15;;
84386;SDS011;74580;47.078;15.446;2024-03-07T14:40:36;3.13;;;2.20;;
84386;SDS011;74580;47.078;15.446;2024-03-07T14:43:03;2.55;;;1.95;;
84386;SDS011;74580;47.078;15.446;2024-03-07T14:45:35;3.53;;;2.03;;
84386;SDS011;74580;47.078;15.446;2024-03-07T14:48:03;4.10;;;2.00;;
84386;SDS011;74580;47.078;15.446;2024-03-07T14:50:29;2.58;;;1.70;;
84386;SDS011;74580;47.078;15.446;2024-03-07T14:52:58;3.25;;;1.90;;
84386;SDS011;74580;47.078;15.446;2024-03-07T14:55:24;2.25;;;1.60;;
84386;SDS011;74580;47.078;15.446;2024-03-07T14:57:49;2.53;;;1.50;;
84386;SDS011;74580;47.078;15.446;2024-03-07T15:00:15;3.13;;;1.73;;
84386;SDS011;74580;47.078;15.446;2024-03-07T15:05:19;2.90;;;1.75;;
84386;SDS011;74580;47.078;15.446;2024-03-07T15:07:48;3.47;;;2.00;;
84386;SDS011;74580;47.078;15.446;2024-03-07T15:10:18;3.53;;;1.88;;
84386;SDS011;74580;47.078;15.446;2024-03-07T15:12:46;3.67;;;2.25;;
84386;SDS011;74580;47.078;15.446;2024-03-07T15:15:13;2.75;;;1.80;;
84386;SDS011;74580;47.078;15.446;2024-03-07T15:17:42;2.60;;;1.60;;
84386;SDS011;74580;47.078;15.446;2024-03-07T15:20:10;3.55;;;2.10;;
84386;SDS011;74580;47.078;15.446;2024-03-07T15:22:52;2.90;;;1.65;;
84386;SDS011;74580;47.078;15.446;2024-03-07T15:25:19;3.17;;;1.73;;
84386;SDS011;74580;47.078;15.446;2024-03-07T15:27:52;2.58;;;1.77;;
84386;SDS011;74580;47.078;15.446;2024-03-07T15:30:21;3.53;;;1.70;;